Time;durP1;ratioP1;P1;durP2;ratioP2;P2;SDS_P1;SDS_P2;PMS_P1;PMS_P2;Temp;Humidity;BMP_temperature;BMP_pressure;BME280_temperature;BME280_humidity;BME280_pressure;Samples;Min_cycle;Max_cycle;Signal;HPM_P1;HPM_P2
2022/04/13 00:00:10;;;;;;;8.10;2.67;;;;;;;13.32;58.88;99186.38;4968269;28;20042;-65
2022/04/13 00:02:36;;;;;;;6.97;3.08;;;;;;;13.35;59.44;99184.47;4967159;28;20039;-64
2022/04/13 00:05:02;;;;;;;7.97;2.45;;;;;;;13.37;58.84;99185.22;4967360;28;20153;-65
2022/04/13 00:07:28;;;;;;;5.25;2.55;;;;;;;13.39;59.15;99183.28;4967333;28;20047;-66
2022/04/13 00:09:54;;;;;;;7.40;2.88;;;;;;;13.38;59.53;99185.09;4967445;28;20053;-65
2022/04/13 00:12:19;;;;;;;5.22;2.83;;;;;;;13.34;59.35;99183.63;4966972;28;20042;-65
2022/04/13 00:14:44;;;;;;;8.60;3.33;;;;;;;13.38;59.41;99182.44;4968796;28;20051;-59
2022/04/13 00:17:10;;;;;;;10.77;2.80;;;;;;;13.46;58.66;99185.41;4969562;28;20161;-61
2022/04/13 00:19:35;;;;;;;5.63;2.55;;;;;;;13.45;59.62;99189.00;4975888;28;20097;-62
2022/04/13 00:22:01;;;;;;;7.75;2.92;;;;;;;13.45;60.02;99180.22;4969515;28;20117;-62
2022/04/13 00:24:26;;;;;;;5.82;2.50;;;;;;;13.50;59.45;99194.81;4981201;28;20058;-62
2022/04/13 00:26:51;;;;;;;6.35;2.60;;;;;;;13.56;60.15;99195.31;4985573;28;20056;-64
2022/04/13 00:29:17;;;;;;;6.10;2.10;;;;;;;13.62;59.45;99189.59;4968578;28;20050;-65
2022/04/13 00:31:42;;;;;;;7.53;2.40;;;;;;;13.66;58.65;99191.94;4970692;28;20342;-65
2022/04/13 00:34:08;;;;;;;9.90;2.65;;;;;;;13.65;59.14;99202.63;4970400;28;20050;-65
2022/04/13 00:36:33;;;;;;;5.82;2.67;;;;;;;13.57;59.04;99203.19;4969912;28;20035;-66
2022/04/13 00:38:59;;;;;;;4.75;2.42;;;;;;;13.47;59.99;99205.63;4952744;28;20109;-65
2022/04/13 00:41:24;;;;;;;6.03;2.88;;;;;;;13.45;60.06;99211.97;4969652;28;20038;-65
2022/04/13 00:44:04;;;;;;;6.50;2.47;;;;;;;13.40;59.94;99207.00;4971007;28;20035;-66
2022/04/13 00:46:31;;;;;;;7.00;3.08;;;;;;;13.35;59.80;99218.88;4970532;28;20038;-64
2022/04/13 00:48:57;;;;;;;10.63;3.25;;;;;;;13.26;60.52;99215.03;4967017;28;20058;-64
2022/04/13 00:51:23;;;;;;;6.03;2.42;;;;;;;13.08;61.34;99220.66;4970599;28;20042;-66
2022/04/13 00:53:50;;;;;;;7.22;2.28;;;;;;;12.99;61.13;99221.25;4973538;28;20374;-65
2022/04/13 00:56:21;;;;;;;8.82;2.95;;;;;;;12.93;61.65;99220.84;4973412;28;20106;-65
2022/04/13 00:58:49;;;;;;;6.25;2.80;;;;;;;12.83;62.15;99223.28;4972247;28;20034;-64
2022/04/13 01:01:15;;;;;;;14.35;4.70;;;;;;;12.72;62.34;99223.97;4963934;28;20042;-64
2022/04/13 01:03:42;;;;;;;9.60;3.63;;;;;;;12.70;61.92;99222.38;4971468;28;20135;-65
2022/04/13 01:06:09;;;;;;;8.43;3.60;;;;;;;12.68;62.64;99226.00;4971209;28;20105;-64
2022/04/13 01:08:40;;;;;;;7.25;2.78;;;;;;;12.66;62.31;99222.59;4972550;28;20035;-64
2022/04/13 01:11:06;;;;;;;5.55;2.58;;;;;;;12.61;62.60;99219.41;4969066;28;20035;-63
2022/04/13 01:13:32;;;;;;;9.43;3.00;;;;;;;12.53;63.38;99227.03;4972295;28;20114;-63
2022/04/13 01:15:57;;;;;;;16.75;2.80;;;;;;;12.47;62.79;99224.78;4972894;28;20065;-64
2022/04/13 01:18:22;;;;;;;4.13;2.53;;;;;;;12.40;63.17;99228.75;4970343;28;20126;-65
2022/04/13 01:20:56;;;;;;;5.32;2.78;;;;;;;12.35;63.80;99233.50;4970023;28;20031;-65
2022/04/13 01:23:23;;;;;;;7.55;2.75;;;;;;;12.32;63.71;99236.34;4969666;28;20127;-64
2022/04/13 01:25:49;;;;;;;7.25;3.05;;;;;;;12.28;63.85;99226.94;4972988;28;20035;-64
2022/04/13 01:28:16;;;;;;;11.88;3.40;;;;;;;12.20;63.82;99230.91;4969889;28;20034;-65
2022/04/13 01:30:41;;;;;;;4.18;2.03;;;;;;;12.12;64.90;99232.38;4973890;28;20523;-64
2022/04/13 01:33:07;;;;;;;9.85;2.60;;;;;;;12.02;65.19;99238.25;4974781;28;20062;-64
2022/04/13 01:35:32;;;;;;;6.03;2.65;;;;;;;11.97;65.72;99240.31;4974531;28;20039;-65
2022/04/13 01:37:57;;;;;;;9.27;2.88;;;;;;;11.95;65.62;99247.50;4975024;28;20142;-66
2022/04/13 01:40:23;;;;;;;12.93;3.25;;;;;;;11.96;65.34;99246.56;4974045;28;20035;-64
2022/04/13 01:42:49;;;;;;;12.05;3.50;;;;;;;11.98;65.21;99249.94;4974154;28;20027;-64
2022/04/13 01:45:19;;;;;;;10.13;2.75;;;;;;;11.98;65.48;99249.09;4974700;28;20514;-65
2022/04/13 01:47:49;;;;;;;5.43;2.65;;;;;;;11.99;65.71;99254.28;4975045;28;20031;-63
2022/04/13 01:50:17;;;;;;;9.90;3.53;;;;;;;11.99;65.40;99256.09;4973804;28;20063;-65
2022/04/13 01:52:43;;;;;;;6.57;2.30;;;;;;;12.03;64.64;99266.38;4972161;28;20039;-66
2022/04/13 01:55:09;;;;;;;3.90;2.30;;;;;;;12.08;64.64;99266.06;5008249;28;20035;-65
2022/04/13 01:57:35;;;;;;;14.27;3.25;;;;;;;12.11;64.63;99259.72;4974109;28;20069;-65
2022/04/13 02:00:04;;;;;;;7.63;2.40;;;;;;;12.17;63.79;99262.81;4973490;28;20054;-65
2022/04/13 02:02:29;;;;;;;6.45;2.70;;;;;;;12.25;63.80;99263.16;4973913;28;20073;-64
2022/04/13 02:04:55;;;;;;;8.15;3.05;;;;;;;12.29;63.28;99266.47;4973979;28;20479;-65
2022/04/13 02:07:20;;;;;;;5.80;2.63;;;;;;;12.34;62.73;99271.47;4972678;28;20031;-65
2022/04/13 02:09:46;;;;;;;9.10;2.65;;;;;;;12.41;62.56;99270.97;4974948;28;20046;-63
2022/04/13 02:12:11;;;;;;;8.55;2.60;;;;;;;12.46;62.05;99278.63;4976212;28;20463;-63
2022/04/13 02:14:36;;;;;;;5.60;2.40;;;;;;;12.45;62.84;99279.53;4977192;28;20062;-64
2022/04/13 02:17:02;;;;;;;8.52;2.65;;;;;;;12.44;62.96;99273.41;4976668;28;20094;-63
2022/04/13 02:19:27;;;;;;;6.35;2.67;;;;;;;12.35;63.75;99273.16;4974233;28;20535;-65
2022/04/13 02:21:53;;;;;;;5.63;2.63;;;;;;;12.31;63.70;99276.97;4974183;28;20035;-65
2022/04/13 02:24:18;;;;;;;8.70;2.58;;;;;;;12.30;64.02;99275.25;4973105;28;20057;-64
2022/04/13 02:26:43;;;;;;;7.65;2.72;;;;;;;12.29;63.94;99273.56;4975145;28;20069;-64
2022/04/13 02:29:09;;;;;;;9.48;3.53;;;;;;;12.28;64.21;99272.72;4975425;28;20038;-64
2022/04/13 02:31:34;;;;;;;6.38;2.70;;;;;;;12.33;63.61;99283.84;4974803;28;20035;-64
2022/04/13 02:34:01;;;;;;;3.92;1.85;;;;;;;12.41;63.86;99283.34;4975685;28;20051;-64
2022/04/13 02:36:26;;;;;;;3.17;2.05;;;;;;;12.48;63.18;99281.13;4975901;28;20051;-63
2022/04/13 02:38:53;;;;;;;4.28;2.22;;;;;;;12.50;64.37;99288.00;4975585;28;20626;-64
2022/04/13 02:41:18;;;;;;;7.53;2.45;;;;;;;12.50;64.11;99282.72;4971723;28;20031;-65
2022/04/13 02:43:44;;;;;;;7.25;2.75;;;;;;;12.48;64.00;99286.41;4973056;28;20094;-65
2022/04/13 02:46:09;;;;;;;12.05;2.92;;;;;;;12.46;64.12;99281.25;4975162;28;20097;-64
2022/04/13 02:48:35;;;;;;;4.38;2.30;;;;;;;12.48;63.57;99282.00;4975013;28;20039;-63
2022/04/13 02:51:00;;;;;;;3.55;1.83;;;;;;;12.53;63.76;99284.31;4973183;28;20765;-65
2022/04/13 02:53:26;;;;;;;6.15;1.90;;;;;;;12.59;63.33;99290.06;4972663;28;20487;-63
2022/04/13 02:55:52;;;;;;;9.50;2.38;;;;;;;12.64;63.26;99285.31;4974132;28;20035;-64
2022/04/13 02:58:17;;;;;;;4.53;2.20;;;;;;;12.66;63.74;99288.72;4973819;28;20058;-64
2022/04/13 03:00:43;;;;;;;5.70;2.50;;;;;;;12.67;63.41;99295.72;4973133;28;20085;-64
2022/04/13 03:03:08;;;;;;;4.28;2.20;;;;;;;12.70;63.31;99301.72;4972767;28;20081;-65
2022/04/13 03:05:33;;;;;;;4.07;2.10;;;;;;;12.70;63.59;99299.09;4972930;28;20458;-64
2022/04/13 03:07:59;;;;;;;6.80;2.20;;;;;;;12.73;63.36;99306.84;4972674;28;20104;-67
2022/04/13 03:10:24;;;;;;;9.43;3.15;;;;;;;12.77;62.68;99295.09;4970443;28;20039;-64
2022/04/13 03:12:50;;;;;;;6.15;1.85;;;;;;;12.78;63.12;99300.28;4972748;28;20062;-64
2022/04/13 03:15:15;;;;;;;4.80;2.75;;;;;;;12.76;62.71;99306.63;4973952;28;20038;-66
2022/04/13 03:17:41;;;;;;;7.63;2.55;;;;;;;12.76;62.80;99311.94;4983427;28;20038;-65
2022/04/13 03:20:08;;;;;;;7.00;2.50;;;;;;;12.78;62.28;99312.69;4973655;28;20494;-64
2022/04/13 03:22:33;;;;;;;5.00;2.53;;;;;;;12.73;63.49;99312.13;4972822;28;20502;-65
2022/04/13 03:25:03;;;;;;;9.30;3.00;;;;;;;12.67;63.62;99324.81;4973176;28;20035;-64
2022/04/13 03:27:28;;;;;;;7.20;3.33;;;;;;;12.67;63.73;99318.66;4972450;28;20035;-65
2022/04/13 03:29:54;;;;;;;8.73;2.72;;;;;;;12.69;63.81;99316.75;4973394;28;20094;-64
2022/04/13 03:32:19;;;;;;;9.05;3.35;;;;;;;12.68;64.02;99315.06;4972041;28;20041;-65
2022/04/13 03:34:44;;;;;;;7.43;3.47;;;;;;;12.62;63.78;99316.31;4972074;28;20050;-66
2022/04/13 03:37:10;;;;;;;7.55;3.42;;;;;;;12.54;63.92;99318.59;4972791;28;20118;-66
2022/04/13 03:39:35;;;;;;;9.20;2.85;;;;;;;12.50;64.64;99318.91;4970925;28;20042;-66
2022/04/13 03:42:00;;;;;;;7.50;3.25;;;;;;;12.42;65.53;99324.69;4971461;28;20066;-64
2022/04/13 03:44:26;;;;;;;7.53;3.15;;;;;;;12.41;64.78;99317.72;4971362;28;20069;-64
2022/04/13 03:46:51;;;;;;;7.03;2.22;;;;;;;12.35;65.08;99326.03;4972330;28;20039;-64
2022/04/13 03:49:16;;;;;;;7.05;2.97;;;;;;;12.29;65.57;99326.44;4973904;28;20046;-64
2022/04/13 03:51:42;;;;;;;9.00;3.58;;;;;;;12.33;64.96;99325.28;4972897;28;20042;-64
2022/04/13 03:54:08;;;;;;;10.55;3.45;;;;;;;12.26;66.03;99319.53;5005999;28;20407;-65
2022/04/13 03:56:34;;;;;;;6.72;3.60;;;;;;;12.20;66.31;99325.22;4973115;28;20031;-66
2022/04/13 03:59:07;;;;;;;6.47;2.83;;;;;;;12.10;66.96;99327.56;4972051;28;20058;-66
2022/04/13 04:01:33;;;;;;;7.72;2.53;;;;;;;12.12;66.55;99330.13;4972780;28;20121;-66
2022/04/13 04:03:58;;;;;;;7.65;3.33;;;;;;;12.11;66.58;99334.59;4972019;28;20132;-66
2022/04/13 04:06:24;;;;;;;7.72;3.42;;;;;;;12.05;66.97;99331.47;4971853;28;20126;-65
2022/04/13 04:08:50;;;;;;;6.80;3.25;;;;;;;11.97;66.90;99330.16;4972086;28;20054;-65
2022/04/13 04:11:15;;;;;;;8.15;4.55;;;;;;;11.87;67.44;99331.66;4971198;28;20634;-67
2022/04/13 04:13:41;;;;;;;14.68;3.42;;;;;;;11.79;67.63;99332.09;4972331;28;20045;-65
2022/04/13 04:16:06;;;;;;;16.38;3.30;;;;;;;11.76;67.86;99331.44;4971626;28;20513;-65
2022/04/13 04:18:32;;;;;;;12.48;3.10;;;;;;;11.72;68.12;99329.94;4970537;28;20038;-64
2022/04/13 04:20:57;;;;;;;10.18;5.00;;;;;;;11.70;67.58;99332.66;4971009;28;20687;-65
2022/04/13 04:23:22;;;;;;;8.43;2.97;;;;;;;11.66;68.19;99330.31;4972159;28;20453;-66
2022/04/13 04:25:48;;;;;;;8.70;3.25;;;;;;;11.60;67.79;99340.28;4971202;28;20050;-66
2022/04/13 04:28:14;;;;;;;4.93;2.88;;;;;;;11.58;67.84;99331.63;4971275;28;20034;-67
2022/04/13 04:30:40;;;;;;;8.55;3.38;;;;;;;11.56;67.69;99335.28;4970950;28;20111;-66
2022/04/13 04:33:07;;;;;;;14.40;2.75;;;;;;;11.56;67.79;99333.50;4971291;28;20093;-65
2022/04/13 04:35:33;;;;;;;7.25;3.22;;;;;;;11.51;68.21;99345.28;4971336;28;20112;-66
2022/04/13 04:37:59;;;;;;;9.82;3.40;;;;;;;11.47;68.33;99339.34;4971167;28;20033;-64
2022/04/13 04:40:26;;;;;;;13.65;2.97;;;;;;;11.43;68.59;99343.09;4970597;28;20434;-65
2022/04/13 04:42:51;;;;;;;12.43;3.88;;;;;;;11.36;68.75;99355.81;4970769;28;20403;-64
2022/04/13 04:45:19;;;;;;;7.03;2.90;;;;;;;11.26;69.27;99357.31;4970217;28;20102;-65
2022/04/13 04:47:56;;;;;;;12.15;2.58;;;;;;;11.23;69.45;99354.84;4971230;28;20039;-65
2022/04/13 04:50:22;;;;;;;9.48;3.45;;;;;;;11.22;69.03;99358.41;4970575;28;20086;-64
2022/04/13 04:52:49;;;;;;;8.50;3.08;;;;;;;11.30;68.48;99364.09;4969531;28;20367;-66
2022/04/13 04:55:19;;;;;;;13.52;3.80;;;;;;;11.24;68.98;99364.44;4969490;28;20058;-67
2022/04/13 04:57:46;;;;;;;9.95;3.33;;;;;;;11.17;69.32;99363.09;4972206;28;20398;-64
2022/04/13 05:00:17;;;;;;;11.05;3.08;;;;;;;11.06;69.65;99366.38;4971193;28;20027;-64
2022/04/13 05:02:43;;;;;;;11.57;3.35;;;;;;;11.00;70.13;99372.03;4970589;28;20054;-65
2022/04/13 05:05:09;;;;;;;8.13;3.25;;;;;;;10.96;70.35;99375.78;4970841;28;20042;-66
2022/04/13 05:07:34;;;;;;;12.18;3.72;;;;;;;10.92;70.59;99379.50;4953698;28;20043;-66
2022/04/13 05:10:00;;;;;;;7.90;3.47;;;;;;;10.90;70.35;99382.25;4970380;28;20514;-65
2022/04/13 05:12:27;;;;;;;7.57;3.50;;;;;;;10.90;70.34;99384.88;4970492;28;20130;-65
2022/04/13 05:14:54;;;;;;;7.10;3.30;;;;;;;10.79;70.53;99386.44;4968430;28;20035;-65
2022/04/13 05:17:21;;;;;;;13.68;3.55;;;;;;;10.72;70.71;99391.19;4970521;28;20035;-65
2022/04/13 05:19:46;;;;;;;8.65;5.00;;;;;;;10.72;71.14;99394.66;4970315;28;20046;-66
2022/04/13 05:22:11;;;;;;;11.20;2.92;;;;;;;10.77;71.20;99397.06;4970271;28;20368;-65
2022/04/13 05:24:37;;;;;;;11.52;3.00;;;;;;;10.85;70.90;99397.47;4970603;28;20098;-65
2022/04/13 05:27:02;;;;;;;8.13;3.25;;;;;;;10.92;70.44;99404.09;4969421;28;20483;-64
2022/04/13 05:29:28;;;;;;;8.85;3.50;;;;;;;10.96;70.26;99405.63;4970500;28;20058;-64
2022/04/13 05:31:53;;;;;;;9.18;3.55;;;;;;;10.94;70.00;99407.50;4970241;28;20395;-65
2022/04/13 05:34:18;;;;;;;12.80;2.92;;;;;;;10.90;70.54;99403.34;4970569;28;20031;-64
2022/04/13 05:36:43;;;;;;;6.75;3.83;;;;;;;10.85;70.58;99404.53;4969426;28;20066;-66
2022/04/13 05:39:09;;;;;;;12.38;4.15;;;;;;;10.91;70.75;99410.31;4970683;28;20031;-65
2022/04/13 05:41:35;;;;;;;13.55;3.45;;;;;;;10.98;70.63;99408.19;4969974;28;20049;-65
2022/04/13 05:44:00;;;;;;;7.50;3.63;;;;;;;11.13;70.46;99409.09;4970402;28;20039;-65
2022/04/13 05:46:26;;;;;;;6.43;2.78;;;;;;;11.30;69.88;99419.53;4970567;28;20035;-65
2022/04/13 05:48:51;;;;;;;9.50;3.55;;;;;;;11.47;69.14;99425.59;4970420;28;20034;-65
2022/04/13 05:51:16;;;;;;;13.95;3.97;;;;;;;11.57;69.02;99427.63;4968622;28;20105;-65
2022/04/13 05:53:42;;;;;;;17.73;4.85;;;;;;;11.66;68.59;99428.84;4971681;28;20115;-63
2022/04/13 05:56:07;;;;;;;9.40;3.72;;;;;;;11.75;68.28;99430.09;4972513;28;20434;-64
2022/04/13 05:58:32;;;;;;;8.05;3.00;;;;;;;11.85;68.26;99430.41;4972340;28;20654;-64
2022/04/13 06:00:58;;;;;;;9.07;3.40;;;;;;;11.96;67.84;99425.34;4971970;28;20046;-66
2022/04/13 06:03:24;;;;;;;18.10;4.05;;;;;;;12.06;67.70;99437.06;4969539;28;20035;-64
2022/04/13 06:05:50;;;;;;;12.98;4.45;;;;;;;12.09;66.96;99428.94;4972216;28;20050;-63
2022/04/13 06:08:16;;;;;;;15.32;3.72;;;;;;;12.11;66.59;99418.25;4971456;28;20376;-64
2022/04/13 06:10:41;;;;;;;16.25;3.92;;;;;;;12.17;66.97;99425.81;4970314;28;20045;-64
2022/04/13 06:13:07;;;;;;;13.60;4.32;;;;;;;12.22;66.53;99426.38;4970370;28;20034;-64
2022/04/13 06:15:32;;;;;;;18.40;4.15;;;;;;;12.24;66.58;99443.84;4971526;28;20045;-65
2022/04/13 06:17:58;;;;;;;7.72;3.47;;;;;;;12.35;66.13;99445.81;4973839;28;20508;-65
2022/04/13 06:20:24;;;;;;;14.68;4.60;;;;;;;12.44;66.59;99439.13;4973983;28;20046;-66
2022/04/13 06:22:49;;;;;;;13.05;3.53;;;;;;;12.51;66.37;99450.19;4974022;28;20030;-65
2022/04/13 06:25:15;;;;;;;13.48;4.03;;;;;;;12.58;66.09;99454.13;4975147;28;20487;-64
2022/04/13 06:27:41;;;;;;;20.58;3.90;;;;;;;12.62;66.28;99455.63;4975424;28;20059;-64
2022/04/13 06:30:08;;;;;;;11.98;3.72;;;;;;;12.71;65.55;99468.28;4973506;28;20039;-65
2022/04/13 06:32:35;;;;;;;13.20;3.63;;;;;;;12.87;65.24;99458.44;4973366;28;20022;-63
2022/04/13 06:35:02;;;;;;;11.82;4.55;;;;;;;13.03;64.84;99462.72;4973669;28;20046;-64
2022/04/13 06:37:27;;;;;;;10.43;3.72;;;;;;;13.10;64.99;99464.03;4972898;28;20103;-67
2022/04/13 06:39:53;;;;;;;14.55;3.97;;;;;;;13.17;64.52;99459.16;4973505;28;20546;-67
2022/04/13 06:42:22;;;;;;;12.77;4.18;;;;;;;13.27;64.50;99471.75;4972840;28;20035;-65
2022/04/13 06:44:47;;;;;;;11.38;3.97;;;;;;;13.44;64.19;99462.72;4975048;28;20395;-66
2022/04/13 06:47:14;;;;;;;13.57;5.13;;;;;;;13.72;63.15;99463.50;4977171;28;20089;-64
2022/04/13 06:49:39;;;;;;;10.13;4.07;;;;;;;14.01;62.79;99460.69;4976088;28;20062;-66
2022/04/13 06:52:05;;;;;;;15.82;4.32;;;;;;;14.25;61.77;99466.94;4973769;28;20074;-65
2022/04/13 06:54:30;;;;;;;19.90;3.67;;;;;;;14.36;61.81;99476.78;4973824;28;20394;-65
2022/04/13 06:56:56;;;;;;;7.68;3.65;;;;;;;14.50;61.09;99473.19;4974566;28;20117;-64
2022/04/13 06:59:22;;;;;;;13.15;4.55;;;;;;;14.80;60.92;99481.63;4972766;28;20039;-64
2022/04/13 07:01:47;;;;;;;10.25;4.10;;;;;;;15.02;60.62;99485.41;4973508;28;20458;-63
2022/04/13 07:04:12;;;;;;;8.80;3.83;;;;;;;15.27;59.68;99486.25;4974010;28;20101;-65
2022/04/13 07:06:38;;;;;;;17.58;4.53;;;;;;;15.55;59.19;99483.25;4973859;28;20522;-67
2022/04/13 07:09:03;;;;;;;15.07;4.32;;;;;;;15.75;60.37;99488.91;4972827;28;20100;-67
2022/04/13 07:11:29;;;;;;;13.65;5.22;;;;;;;15.91;57.62;99488.59;4972605;28;20482;-65
2022/04/13 07:13:55;;;;;;;22.60;4.85;;;;;;;16.08;58.68;99490.81;4971178;28;20038;-65
2022/04/13 07:16:21;;;;;;;23.75;5.03;;;;;;;16.32;58.36;99493.41;4972969;28;20031;-64
2022/04/13 07:18:46;;;;;;;17.85;5.90;;;;;;;16.62;56.19;99495.47;4973604;28;20027;-64
2022/04/13 07:21:12;;;;;;;23.75;5.63;;;;;;;16.85;54.31;99498.97;4973149;28;20062;-64
2022/04/13 07:23:37;;;;;;;18.60;6.55;;;;;;;17.06;55.01;99495.59;4974177;28;20058;-64
2022/04/13 07:26:02;;;;;;;12.43;5.30;;;;;;;17.31;53.94;99502.44;4972821;28;20122;-64
2022/04/13 07:28:28;;;;;;;11.85;6.10;;;;;;;17.55;52.19;99500.41;4975216;28;20094;-65
2022/04/13 07:30:54;;;;;;;16.95;5.15;;;;;;;17.76;51.94;99496.91;4979393;28;20063;-65
2022/04/13 07:33:19;;;;;;;14.68;4.93;;;;;;;17.92;51.06;99502.69;4978653;28;20055;-65
2022/04/13 07:35:45;;;;;;;21.92;6.57;;;;;;;18.19;50.26;99494.16;4973873;28;20037;-65
2022/04/13 07:38:10;;;;;;;9.10;4.93;;;;;;;18.60;50.01;99499.56;4974365;28;20039;-65
2022/04/13 07:40:35;;;;;;;13.20;5.38;;;;;;;18.90;48.74;99506.72;4973554;28;20491;-64
2022/04/13 07:43:01;;;;;;;14.90;6.25;;;;;;;19.13;48.46;99504.69;4971830;28;20066;-66
2022/04/13 07:45:26;;;;;;;13.80;7.15;;;;;;;19.36;47.93;99507.97;4972156;28;20039;-65
2022/04/13 07:47:51;;;;;;;16.75;7.53;;;;;;;19.67;47.60;99505.19;4972550;28;20440;-66
2022/04/13 07:50:17;;;;;;;19.75;7.60;;;;;;;19.86;47.05;99493.66;4971624;28;20148;-66
2022/04/13 07:52:42;;;;;;;15.00;7.07;;;;;;;20.04;47.23;99507.19;4972202;28;20730;-66
2022/04/13 07:55:12;;;;;;;16.73;6.40;;;;;;;20.27;46.41;99505.84;4972042;28;20115;-66
2022/04/13 07:57:39;;;;;;;20.25;6.40;;;;;;;20.55;45.44;99503.25;4960572;28;20090;-71
2022/04/13 08:00:06;;;;;;;9.63;5.35;;;;;;;20.96;44.65;99506.47;4962925;28;20574;-67
2022/04/13 08:02:34;;;;;;;13.25;5.72;;;;;;;21.31;43.86;99510.22;4966358;28;20097;-68
2022/04/13 08:04:59;;;;;;;25.50;8.32;;;;;;;21.19;44.18;99515.81;4966950;28;20049;-67
2022/04/13 08:07:25;;;;;;;16.83;5.78;;;;;;;21.49;43.79;99519.16;4967153;28;20034;-67
2022/04/13 08:09:51;;;;;;;11.70;4.90;;;;;;;21.76;43.04;99528.16;4966021;28;20113;-68
2022/04/13 08:12:17;;;;;;;17.25;6.97;;;;;;;21.84;43.14;99528.22;4965748;28;20488;-68
2022/04/13 08:14:46;;;;;;;14.98;5.97;;;;;;;21.64;43.59;99531.06;4967237;28;20046;-67
2022/04/13 08:17:12;;;;;;;15.52;5.97;;;;;;;21.29;43.70;99528.28;4950169;28;20042;-69
2022/04/13 08:19:37;;;;;;;14.23;5.75;;;;;;;21.00;44.24;99529.31;4947603;28;20189;-65
2022/04/13 08:22:03;;;;;;;15.55;5.38;;;;;;;20.77;44.92;99539.53;4946905;28;20475;-64
2022/04/13 08:24:29;;;;;;;11.25;4.47;;;;;;;20.74;44.61;99535.31;4947499;28;20427;-67
2022/04/13 08:26:54;;;;;;;17.58;6.15;;;;;;;20.44;44.97;99533.72;4945671;28;20178;-66
2022/04/13 08:29:19;;;;;;;13.75;4.45;;;;;;;20.24;45.52;99537.44;4949346;28;20114;-67
2022/04/13 08:31:45;;;;;;;6.72;3.35;;;;;;;19.97;46.21;99541.69;4966129;28;20039;-66
2022/04/13 08:34:10;;;;;;;10.02;3.80;;;;;;;19.73;47.00;99547.44;4966737;28;20042;-65
2022/04/13 08:36:35;;;;;;;18.65;4.07;;;;;;;19.68;47.37;99550.53;4966149;28;20177;-66
2022/04/13 08:39:00;;;;;;;11.80;5.22;;;;;;;19.50;47.71;99544.16;4955141;28;20119;-66
2022/04/13 08:41:38;;;;;;;11.40;4.85;;;;;;;19.23;48.55;99555.50;4951687;28;20380;-66
2022/04/13 08:44:12;;;;;;;21.88;4.35;;;;;;;19.14;48.66;99554.47;4966354;28;20134;-65
2022/04/13 08:46:39;;;;;;;11.43;3.53;;;;;;;19.09;48.89;99544.19;4965701;28;20106;-65
2022/04/13 08:49:07;;;;;;;13.10;4.63;;;;;;;19.15;49.32;99550.84;4965509;28;20466;-66
2022/04/13 08:51:34;;;;;;;15.27;5.43;;;;;;;19.16;48.99;99562.38;4965758;28;20510;-66
2022/04/13 08:54:11;;;;;;;10.50;5.03;;;;;;;19.34;48.93;99558.03;4966452;28;20031;-64
2022/04/13 08:56:37;;;;;;;13.05;4.78;;;;;;;19.83;47.60;99566.19;4966093;28;20094;-66
2022/04/13 08:59:31;;;;;;;15.20;5.63;;;;;;;20.54;45.96;99557.78;4965418;28;20054;-65
2022/04/13 09:02:33;;;;;;;15.02;5.03;;;;;;;21.01;44.79;99557.78;4963621;28;20113;-64
2022/04/13 09:05:00;;;;;;;15.20;4.78;;;;;;;21.34;44.41;99574.25;4964622;28;20410;-67
2022/04/13 09:07:31;;;;;;;16.45;5.22;;;;;;;21.55;43.79;99566.00;4965872;28;20038;-67
2022/04/13 09:10:00;;;;;;;16.08;5.10;;;;;;;21.84;42.81;99573.84;4965843;28;20050;-67
2022/04/13 09:12:30;;;;;;;12.30;5.32;;;;;;;22.46;41.63;99569.34;4965606;28;20478;-65
2022/04/13 09:14:57;;;;;;;10.88;4.85;;;;;;;22.81;40.81;99570.22;4966065;28;20185;-65
2022/04/13 09:17:29;;;;;;;11.93;5.47;;;;;;;23.23;40.01;99565.91;4966079;28;20046;-67
2022/04/13 09:20:01;;;;;;;20.45;5.25;;;;;;;23.45;39.73;99569.84;4966189;28;20034;-65
2022/04/13 09:22:29;;;;;;;9.85;4.07;;;;;;;23.57;39.27;99564.00;4966369;28;20031;-65
2022/04/13 09:24:57;;;;;;;29.67;7.20;;;;;;;23.51;38.92;99570.06;4966328;28;20093;-65
2022/04/13 09:27:24;;;;;;;34.85;10.73;;;;;;;23.63;38.99;99575.09;4966241;28;20407;-66
2022/04/13 09:29:50;;;;;;;29.52;8.32;;;;;;;24.20;37.68;99576.06;4965398;28;20049;-65
2022/04/13 09:32:17;;;;;;;7.63;4.43;;;;;;;24.16;37.25;99579.25;4965733;28;20042;-64
2022/04/13 09:34:42;;;;;;;21.00;6.63;;;;;;;24.32;37.29;99573.88;4965646;28;20041;-64
2022/04/13 09:37:07;;;;;;;13.55;5.13;;;;;;;24.44;37.09;99577.06;4962475;28;20114;-64
2022/04/13 09:39:33;;;;;;;9.93;4.13;;;;;;;24.50;36.05;99572.88;4965738;28;20066;-64
2022/04/13 09:42:05;;;;;;;10.10;4.30;;;;;;;24.65;35.99;99573.84;4965937;28;20061;-65
2022/04/13 09:44:33;;;;;;;9.45;5.53;;;;;;;25.26;34.79;99580.44;4964766;28;20039;-65
2022/04/13 09:47:12;;;;;;;16.38;5.07;;;;;;;25.63;34.23;99583.47;4967841;28;20039;-65
2022/04/13 09:49:52;;;;;;;15.05;4.85;;;;;;;25.53;34.58;99580.97;4966951;28;20039;-64
2022/04/13 09:52:20;;;;;;;15.35;5.22;;;;;;;25.23;35.51;99580.78;4969610;28;20808;-64
2022/04/13 09:54:46;;;;;;;20.13;7.63;;;;;;;25.71;35.51;99586.09;4969770;28;20043;-64
2022/04/13 09:57:24;;;;;;;61.70;11.07;;;;;;;26.21;34.42;99583.91;4969980;28;20033;-64
2022/04/13 09:59:58;;;;;;;23.23;5.55;;;;;;;26.31;34.22;99579.94;4968350;28;20054;-65
2022/04/13 10:02:44;;;;;;;16.35;5.97;;;;;;;26.20;34.09;99579.53;4968797;28;20046;-66
2022/04/13 10:05:30;;;;;;;9.40;4.32;;;;;;;25.74;34.65;99574.09;4969050;28;20117;-67
2022/04/13 10:08:03;;;;;;;21.38;4.88;;;;;;;24.68;36.40;99575.38;4968981;28;20042;-66
2022/04/13 10:10:29;;;;;;;26.65;6.72;;;;;;;23.98;37.82;99574.88;4968999;28;20450;-64
2022/04/13 10:12:54;;;;;;;16.65;4.60;;;;;;;23.68;38.36;99581.69;4969136;28;20035;-66
2022/04/13 10:15:20;;;;;;;8.88;4.57;;;;;;;23.52;38.51;99578.97;4969509;28;20601;-65
2022/04/13 10:17:46;;;;;;;9.82;5.40;;;;;;;23.59;38.35;99590.75;4968766;28;20519;-66
2022/04/13 10:20:11;;;;;;;7.97;4.20;;;;;;;24.03;37.61;99587.84;4968458;28;20467;-64
2022/04/13 10:22:59;;;;;;;8.68;4.68;;;;;;;24.00;37.50;99580.94;4968403;28;20490;-65
2022/04/13 10:25:27;;;;;;;10.93;4.78;;;;;;;23.55;38.66;99584.00;4968571;28;20051;-67
2022/04/13 10:28:00;;;;;;;9.50;3.83;;;;;;;23.23;38.81;99585.56;4968372;28;20410;-67
2022/04/13 10:30:27;;;;;;;16.85;4.68;;;;;;;23.13;39.39;99584.88;4968069;28;20050;-66
2022/04/13 10:33:01;;;;;;;9.88;4.57;;;;;;;23.28;39.06;99588.66;4967445;28;20035;-64
2022/04/13 10:35:28;;;;;;;10.00;4.35;;;;;;;23.82;37.81;99585.63;4968869;28;20122;-66
2022/04/13 10:37:55;;;;;;;8.77;4.40;;;;;;;23.30;38.52;99591.16;4968671;28;20045;-64
2022/04/13 10:40:22;;;;;;;11.63;5.20;;;;;;;22.96;39.48;99586.59;4967949;28;20684;-67
2022/04/13 10:42:50;;;;;;;11.43;4.68;;;;;;;22.39;40.77;99589.78;4968550;28;20137;-66
2022/04/13 10:45:16;;;;;;;12.70;5.18;;;;;;;21.91;41.62;99585.66;4968132;28;20038;-65
2022/04/13 10:47:59;;;;;;;9.68;3.83;;;;;;;21.99;41.72;99595.63;4968385;28;20062;-65
2022/04/13 10:50:30;;;;;;;7.28;4.18;;;;;;;21.86;41.70;99604.91;4967611;28;20046;-66
2022/04/13 10:53:06;;;;;;;7.70;4.18;;;;;;;21.54;42.21;99602.72;4968166;28;20826;-66
2022/04/13 10:55:34;;;;;;;10.43;4.18;;;;;;;21.57;42.19;99601.56;4968366;28;20035;-65
2022/04/13 10:58:03;;;;;;;8.85;4.75;;;;;;;21.77;42.06;99608.47;4967050;28;20450;-65
2022/04/13 11:00:33;;;;;;;14.82;4.70;;;;;;;22.18;41.27;99603.50;4964968;28;20039;-66
2022/04/13 11:03:04;;;;;;;13.18;5.18;;;;;;;22.48;41.05;99610.31;4966899;28;20034;-67
2022/04/13 11:05:33;;;;;;;12.52;4.15;;;;;;;22.62;40.73;99608.94;4967846;28;20046;-66
2022/04/13 11:08:19;;;;;;;11.60;5.20;;;;;;;22.26;41.32;99602.78;4971487;28;20037;-65
2022/04/13 11:10:52;;;;;;;14.65;5.35;;;;;;;21.84;42.39;99614.09;4947683;28;20042;-66
2022/04/13 11:13:19;;;;;;;9.05;4.78;;;;;;;21.42;43.29;99611.97;4946807;28;20106;-66
2022/04/13 11:15:46;;;;;;;11.13;4.13;;;;;;;21.46;43.43;99610.66;4963817;28;20133;-64
2022/04/13 11:18:14;;;;;;;8.13;3.92;;;;;;;21.49;43.03;99610.38;4968144;28;20034;-65
2022/04/13 11:20:58;;;;;;;12.13;4.80;;;;;;;21.53;43.30;99602.84;4967612;28;20521;-66
2022/04/13 11:23:43;;;;;;;18.80;4.55;;;;;;;21.67;42.83;99612.25;4967078;28;20081;-66
2022/04/13 11:26:09;;;;;;;11.40;4.78;;;;;;;21.52;42.93;99604.69;4968008;28;20723;-65
2022/04/13 11:28:35;;;;;;;10.98;4.47;;;;;;;21.41;43.47;99612.94;4967734;28;20101;-65